Sbi Hercules — D5KQ3 — position and weather

sailwx.info

Track history (hours):
 
Tides and Currents Weather Stations Pressure Air Temp Water Temp Dewpoint Dewpoint Depression Visibility Wind Speed Wind Dir Waves Ship Positions

Sbi Hercules

Last reported at 2018-Jan-22 13:30 UTC. Time now 2018-Jan-22 13:48 UTC.
Position N 53°30' E 009°58'.

Length 200 m; draft 7.4 m.

Type: Cargo ship. MMSI: 636017382.

Date/timePositionNaut miles runAvg speedWind from/ knotsBaromVisibWave heightAir tempDewpointWater temp
2018-Jan-22 13:30N 53°30' E 009°58'0 0.0
2018-Jan-22 13:00N 53°30' E 009°58'0 0.0
2018-Jan-22 12:30N 53°30' E 009°58'0 0.0
2018-Jan-22 11:57N 53°30' E 009°58'0 0.0
2018-Jan-22 11:30N 53°30' E 009°58'0 0.0
2018-Jan-22 11:00N 53°30' E 009°58'0 0.0
2018-Jan-22 10:30N 53°30' E 009°58'0 0.0
2018-Jan-22 10:00N 53°30' E 009°58'0 0.0
2018-Jan-22 09:30N 53°30' E 009°58'0 0.0
2018-Jan-22 09:00N 53°30' E 009°58'0 0.0
2018-Jan-22 08:30N 53°30' E 009°58'0 0.0
2018-Jan-22 08:00N 53°30' E 009°58'0 0.0
2018-Jan-22 07:30N 53°30' E 009°58'0 0.0
2018-Jan-22 07:00N 53°30' E 009°58'0 0.0
2018-Jan-22 06:30N 53°30' E 009°58'0 0.0
2018-Jan-22 06:00N 53°30' E 009°58'0 0.0
2018-Jan-22 05:30N 53°30' E 009°58'0 0.0
2018-Jan-22 05:00N 53°30' E 009°58'0 0.0
2018-Jan-22 04:30N 53°30' E 009°58'0 0.0
2018-Jan-22 04:00N 53°30' E 009°58'0 0.0
2018-Jan-22 03:30N 53°30' E 009°58'0 0.0
2018-Jan-22 03:00N 53°30' E 009°58'0 0.0
2018-Jan-22 02:30N 53°30' E 009°58'0 0.0
2018-Jan-22 02:00N 53°30' E 009°58'0 0.0
2018-Jan-22 01:30N 53°30' E 009°58'0 0.0
2018-Jan-22 01:00N 53°30' E 009°58'0 0.0
2018-Jan-22 00:30N 53°30' E 009°58'0 0.0
2018-Jan-22 00:00N 53°30' E 009°58'0 0.0
2018-Jan-21 23:30N 53°30' E 009°58'0 0.0
2018-Jan-21 23:00N 53°30' E 009°58'0 0.0
2018-Jan-21 22:30N 53°30' E 009°58'0 0.0
2018-Jan-21 22:00N 53°30' E 009°58'0 0.0
2018-Jan-21 21:30N 53°30' E 009°58'0 0.0
2018-Jan-21 21:00N 53°30' E 009°58'0 0.0
2018-Jan-21 20:30N 53°30' E 009°58'0 0.0
2018-Jan-21 20:00N 53°30' E 009°58'0 0.0
2018-Jan-21 19:30N 53°30' E 009°58'0 0.0
2018-Jan-21 19:00N 53°30' E 009°58'0 0.0
2018-Jan-21 18:30N 53°30' E 009°58'0 0.0
2018-Jan-21 18:00N 53°30' E 009°58'0 0.0
2018-Jan-21 17:30N 53°30' E 009°58'0 0.0
2018-Jan-21 17:00N 53°30' E 009°58'0 0.0
2018-Jan-21 16:30N 53°30' E 009°58'0 0.0
2018-Jan-21 16:00N 53°30' E 009°58'0 0.0
2018-Jan-21 15:30N 53°30' E 009°58'0 0.0
2018-Jan-21 15:00N 53°30' E 009°58'2 3.1
2018-Jan-21 14:30N 53°32' E 009°56'3 6.7
2018-Jan-21 14:00N 53°33' E 009°51'5 9.7
2018-Jan-21 13:30N 53°34' E 009°43'611.2
2018-Jan-21 13:00N 53°36' E 009°35'611.1
2018-Jan-21 12:30N 53°41' E 009°30'611.2
2018-Jan-21 12:00N 53°46' E 009°24'611.6
2018-Jan-21 11:30N 53°51' E 009°20'611.3
2018-Jan-21 11:00N 53°53' E 009°11'4 8.9
2018-Jan-21 10:31N 53°52' E 009°03'5 9.9
2018-Jan-21 10:00N 53°51' E 008°55'510.7
2018-Jan-21 09:30N 53°51' E 008°46'5 9.4
2018-Jan-21 09:00N 53°54' E 008°41'5 9.8
2018-Jan-21 08:31N 53°58' E 008°35'510.6
2018-Jan-21 08:00N 53°59' E 008°26'511.1
2018-Jan-21 07:30N 53°60' E 008°17'612.6
2018-Jan-21 07:00N 53°59' E 008°06'611.8
2018-Jan-21 06:30N 54°02' E 007°57'510.4
2018-Jan-21 06:00N 54°03' E 007°48'0 0.5
2018-Jan-21 05:30N 54°03' E 007°48'0 0.5
2018-Jan-21 05:00N 54°03' E 007°49'0 0.4
2018-Jan-21 04:30N 54°03' E 007°49'0 0.4
2018-Jan-21 04:00N 54°04' E 007°49'0 0.2
2018-Jan-21 03:30N 54°04' E 007°49'0 0.1
2018-Jan-21 03:00N 54°04' E 007°49'2 3.6
2018-Jan-21 02:30N 54°05' E 007°47'26312.4
2018-Jan-20 05:12N 53°39' E 000°23'8 8.0
2018-Jan-20 04:08N 53°33' E 000°14'311.1
2018-Jan-20 03:54N 53°33' E 000°09'511.4
2018-Jan-20 03:30N 53°36' E 000°04'611.9
2018-Jan-20 02:59N 53°37' W 000°06'3 7.2
2018-Jan-20 02:30N 53°38' W 000°12'0 0.1
2018-Jan-20 01:58N 53°38' W 000°12'0 0.0
2018-Jan-20 01:28N 53°38' W 000°12'0 0.0
2018-Jan-20 00:58N 53°38' W 000°12'0 0.0
2018-Jan-20 00:28N 53°38' W 000°12'0 0.0
2018-Jan-19 23:58N 53°38' W 000°12'0 0.0
2018-Jan-19 23:25N 53°38' W 000°12'0 0.0
2018-Jan-19 22:58N 53°38' W 000°12'0 0.0
2018-Jan-19 22:28N 53°38' W 000°12'0 0.0
2018-Jan-19 21:59N 53°38' W 000°12'0 0.0
2018-Jan-19 21:28N 53°38' W 000°12'0 0.0
2018-Jan-19 20:58N 53°38' W 000°12'0 0.0
2018-Jan-19 20:28N 53°38' W 000°12'0 0.0
2018-Jan-19 19:58N 53°38' W 000°12'0 0.0
2018-Jan-19 19:28N 53°38' W 000°12'0 0.0
2018-Jan-19 18:58N 53°38' W 000°12'0 0.0
2018-Jan-19 18:25N 53°38' W 000°12'0 0.0
2018-Jan-19 17:58N 53°38' W 000°12'0 0.0
2018-Jan-19 17:28N 53°38' W 000°12'0 0.0
2018-Jan-19 16:58N 53°38' W 000°12'0 0.0
2018-Jan-19 16:28N 53°38' W 000°12'0 0.0
2018-Jan-19 15:58N 53°38' W 000°12'0 0.0
2018-Jan-19 15:25N 53°38' W 000°12'0 0.0
2018-Jan-19 14:58N 53°38' W 000°12'0 0.0
2018-Jan-19 14:25N 53°38' W 000°12'0 0.0
2018-Jan-19 13:58N 53°38' W 000°12'0 0.0
2018-Jan-19 13:28N 53°38' W 000°12'0 0.0
2018-Jan-19 12:55N 53°38' W 000°12'0 0.0
2018-Jan-19 12:28N 53°38' W 000°12'0 0.0
2018-Jan-19 11:58N 53°38' W 000°12'0 0.0
2018-Jan-19 11:28N 53°38' W 000°12'0 0.0
2018-Jan-19 10:58N 53°38' W 000°12'0 0.0
2018-Jan-19 10:28N 53°38' W 000°12'0 0.0
2018-Jan-19 09:58N 53°38' W 000°12'0 0.0
2018-Jan-19 09:22N 53°38' W 000°12'0 0.0
2018-Jan-19 08:58N 53°38' W 000°12'0 0.0
2018-Jan-19 08:28N 53°38' W 000°12'0 0.0
2018-Jan-19 07:58N 53°38' W 000°12'0 0.0
2018-Jan-19 07:28N 53°38' W 000°12'0 0.0
2018-Jan-19 06:58N 53°38' W 000°12'0 0.0
2018-Jan-19 06:28N 53°38' W 000°12'0 0.0
2018-Jan-19 05:58N 53°38' W 000°12'0 0.0
2018-Jan-19 05:28N 53°38' W 000°12'0 0.0
2018-Jan-19 04:58N 53°38' W 000°12'0 0.0
2018-Jan-19 04:28N 53°38' W 000°12'0 0.0
2018-Jan-19 03:58N 53°38' W 000°12'0 0.0
2018-Jan-19 03:28N 53°38' W 000°12'0 0.0
2018-Jan-19 02:58N 53°38' W 000°12'0 0.0
2018-Jan-19 02:28N 53°38' W 000°12'0 0.0
2018-Jan-19 01:58N 53°38' W 000°12'0 0.0
2018-Jan-19 01:28N 53°38' W 000°12'0 0.0
2018-Jan-19 00:58N 53°38' W 000°12'0 0.0
2018-Jan-19 00:28N 53°38' W 000°12'0 0.0
2018-Jan-18 23:58N 53°38' W 000°12'0 0.0
2018-Jan-18 23:28N 53°38' W 000°12'0 0.0
2018-Jan-18 22:58N 53°38' W 000°12'0 0.0
2018-Jan-18 22:28N 53°38' W 000°12'0 0.0
2018-Jan-18 21:58N 53°38' W 000°12'0 0.0
2018-Jan-18 21:28N 53°38' W 000°12'0 0.0
2018-Jan-18 20:58N 53°38' W 000°12'0 0.0
2018-Jan-18 20:28N 53°38' W 000°12'0 0.0
2018-Jan-18 19:58N 53°38' W 000°12'0 0.0
2018-Jan-18 19:25N 53°38' W 000°12'0 0.0
2018-Jan-18 18:58N 53°38' W 000°12'0 0.0
2018-Jan-18 18:28N 53°38' W 000°12'0 0.0
2018-Jan-18 17:58N 53°38' W 000°12'0 0.0
2018-Jan-18 17:22N 53°38' W 000°12'0 0.0
2018-Jan-18 16:58N 53°38' W 000°12'0 0.0
2018-Jan-18 16:25N 53°38' W 000°12'0 0.0
2018-Jan-18 15:58N 53°38' W 000°12'0 0.0
2018-Jan-18 15:28N 53°38' W 000°12'0 0.0
2018-Jan-18 14:55N 53°38' W 000°12'0 0.0
2018-Jan-18 14:28N 53°38' W 000°12'0 0.0
2018-Jan-18 13:58N 53°38' W 000°12'0 0.0
2018-Jan-18 13:28N 53°38' W 000°12'0 0.0
2018-Jan-18 12:58N 53°38' W 000°12'0 0.0
2018-Jan-18 12:28N 53°38' W 000°12'0 0.0
2018-Jan-18 11:58N 53°38' W 000°12'0 0.0
2018-Jan-18 11:28N 53°38' W 000°12'0 0.0
2018-Jan-18 10:58N 53°38' W 000°12'0 0.0
2018-Jan-18 10:28N 53°38' W 000°12'0 0.0
2018-Jan-18 09:58N 53°38' W 000°12'0 0.0
2018-Jan-18 09:28N 53°38' W 000°12'0 0.0
2018-Jan-18 08:58N 53°38' W 000°12'0 0.0
2018-Jan-18 08:28N 53°38' W 000°12'0 0.0
2018-Jan-18 07:55N 53°38' W 000°12'0 0.0
2018-Jan-18 07:28N 53°38' W 000°12'0 0.0
2018-Jan-18 06:58N 53°38' W 000°12'0 0.0
2018-Jan-18 06:28N 53°38' W 000°12'0 0.0
2018-Jan-18 05:58N 53°38' W 000°12'0 0.0
2018-Jan-18 05:28N 53°38' W 000°12'0 0.0
2018-Jan-18 04:58N 53°38' W 000°12'0 0.0
2018-Jan-18 04:28N 53°38' W 000°12'0 0.0
2018-Jan-18 03:58N 53°38' W 000°12'0 0.0
2018-Jan-18 03:28N 53°38' W 000°12'0 0.0
2018-Jan-18 02:58N 53°38' W 000°12'0 0.0
2018-Jan-18 02:28N 53°38' W 000°12'0 0.0
2018-Jan-18 01:58N 53°38' W 000°12'0 0.0
2018-Jan-18 01:28N 53°38' W 000°12'0 0.0
2018-Jan-18 00:58N 53°38' W 000°12'0 0.0
2018-Jan-17 23:58N 53°38' W 000°12'0 0.0
2018-Jan-17 23:55N 53°38' W 000°12'  
Track history (hours):
 
Tides and Currents Weather Stations Pressure Air Temp Water Temp Dewpoint Dewpoint Depression Visibility Wind Speed Wind Dir Waves Ship Positions

Sbi Hercules

Last reported at 2018-Jan-22 13:30 UTC. Time now 2018-Jan-22 13:48 UTC.
Position N 53°30' E 009°58'.

Length 200 m; draft 7.4 m.

Type: Cargo ship. MMSI: 636017382.

Date/timePositionNaut miles runAvg speedWind from/ knotsBaromVisibWave heightAir tempDewpointWater temp
2018-Jan-22 13:30N 53°30' E 009°58'0 0.0
2018-Jan-22 13:00N 53°30' E 009°58'0 0.0
2018-Jan-22 12:30N 53°30' E 009°58'0 0.0
2018-Jan-22 11:57N 53°30' E 009°58'0 0.0
2018-Jan-22 11:30N 53°30' E 009°58'0 0.0
2018-Jan-22 11:00N 53°30' E 009°58'0 0.0
2018-Jan-22 10:30N 53°30' E 009°58'0 0.0
2018-Jan-22 10:00N 53°30' E 009°58'0 0.0
2018-Jan-22 09:30N 53°30' E 009°58'0 0.0
2018-Jan-22 09:00N 53°30' E 009°58'0 0.0
2018-Jan-22 08:30N 53°30' E 009°58'0 0.0
2018-Jan-22 08:00N 53°30' E 009°58'0 0.0
2018-Jan-22 07:30N 53°30' E 009°58'0 0.0
2018-Jan-22 07:00N 53°30' E 009°58'0 0.0
2018-Jan-22 06:30N 53°30' E 009°58'0 0.0
2018-Jan-22 06:00N 53°30' E 009°58'0 0.0
2018-Jan-22 05:30N 53°30' E 009°58'0 0.0
2018-Jan-22 05:00N 53°30' E 009°58'0 0.0
2018-Jan-22 04:30N 53°30' E 009°58'0 0.0
2018-Jan-22 04:00N 53°30' E 009°58'0 0.0
2018-Jan-22 03:30N 53°30' E 009°58'0 0.0
2018-Jan-22 03:00N 53°30' E 009°58'0 0.0
2018-Jan-22 02:30N 53°30' E 009°58'0 0.0
2018-Jan-22 02:00N 53°30' E 009°58'0 0.0
2018-Jan-22 01:30N 53°30' E 009°58'0 0.0
2018-Jan-22 01:00N 53°30' E 009°58'0 0.0
2018-Jan-22 00:30N 53°30' E 009°58'0 0.0
2018-Jan-22 00:00N 53°30' E 009°58'0 0.0
2018-Jan-21 23:30N 53°30' E 009°58'0 0.0
2018-Jan-21 23:00N 53°30' E 009°58'0 0.0
2018-Jan-21 22:30N 53°30' E 009°58'0 0.0
2018-Jan-21 22:00N 53°30' E 009°58'0 0.0
2018-Jan-21 21:30N 53°30' E 009°58'0 0.0
2018-Jan-21 21:00N 53°30' E 009°58'0 0.0
2018-Jan-21 20:30N 53°30' E 009°58'0 0.0
2018-Jan-21 20:00N 53°30' E 009°58'0 0.0
2018-Jan-21 19:30N 53°30' E 009°58'0 0.0
2018-Jan-21 19:00N 53°30' E 009°58'0 0.0
2018-Jan-21 18:30N 53°30' E 009°58'0 0.0
2018-Jan-21 18:00N 53°30' E 009°58'0 0.0
2018-Jan-21 17:30N 53°30' E 009°58'0 0.0
2018-Jan-21 17:00N 53°30' E 009°58'0 0.0
2018-Jan-21 16:30N 53°30' E 009°58'0 0.0
2018-Jan-21 16:00N 53°30' E 009°58'0 0.0
2018-Jan-21 15:30N 53°30' E 009°58'0 0.0
2018-Jan-21 15:00N 53°30' E 009°58'2 3.1
2018-Jan-21 14:30N 53°32' E 009°56'3 6.7
2018-Jan-21 14:00N 53°33' E 009°51'5 9.7
2018-Jan-21 13:30N 53°34' E 009°43'611.2
2018-Jan-21 13:00N 53°36' E 009°35'611.1
2018-Jan-21 12:30N 53°41' E 009°30'611.2
2018-Jan-21 12:00N 53°46' E 009°24'611.6
2018-Jan-21 11:30N 53°51' E 009°20'611.3
2018-Jan-21 11:00N 53°53' E 009°11'4 8.9
2018-Jan-21 10:31N 53°52' E 009°03'5 9.9
2018-Jan-21 10:00N 53°51' E 008°55'510.7
2018-Jan-21 09:30N 53°51' E 008°46'5 9.4
2018-Jan-21 09:00N 53°54' E 008°41'5 9.8
2018-Jan-21 08:31N 53°58' E 008°35'510.6
2018-Jan-21 08:00N 53°59' E 008°26'511.1
2018-Jan-21 07:30N 53°60' E 008°17'612.6
2018-Jan-21 07:00N 53°59' E 008°06'611.8
2018-Jan-21 06:30N 54°02' E 007°57'510.4
2018-Jan-21 06:00N 54°03' E 007°48'0 0.5
2018-Jan-21 05:30N 54°03' E 007°48'0 0.5
2018-Jan-21 05:00N 54°03' E 007°49'0 0.4
2018-Jan-21 04:30N 54°03' E 007°49'0 0.4
2018-Jan-21 04:00N 54°04' E 007°49'0 0.2
2018-Jan-21 03:30N 54°04' E 007°49'0 0.1
2018-Jan-21 03:00N 54°04' E 007°49'2 3.6
2018-Jan-21 02:30N 54°05' E 007°47'26312.4
2018-Jan-20 05:12N 53°39' E 000°23'8 8.0
2018-Jan-20 04:08N 53°33' E 000°14'311.1
2018-Jan-20 03:54N 53°33' E 000°09'511.4
2018-Jan-20 03:30N 53°36' E 000°04'611.9
2018-Jan-20 02:59N 53°37' W 000°06'3 7.2
2018-Jan-20 02:30N 53°38' W 000°12'0 0.1
2018-Jan-20 01:58N 53°38' W 000°12'0 0.0
2018-Jan-20 01:28N 53°38' W 000°12'0 0.0
2018-Jan-20 00:58N 53°38' W 000°12'0 0.0
2018-Jan-20 00:28N 53°38' W 000°12'0 0.0
2018-Jan-19 23:58N 53°38' W 000°12'0 0.0
2018-Jan-19 23:25N 53°38' W 000°12'0 0.0
2018-Jan-19 22:58N 53°38' W 000°12'0 0.0
2018-Jan-19 22:28N 53°38' W 000°12'0 0.0
2018-Jan-19 21:59N 53°38' W 000°12'0 0.0
2018-Jan-19 21:28N 53°38' W 000°12'0 0.0
2018-Jan-19 20:58N 53°38' W 000°12'0 0.0
2018-Jan-19 20:28N 53°38' W 000°12'0 0.0
2018-Jan-19 19:58N 53°38' W 000°12'0 0.0
2018-Jan-19 19:28N 53°38' W 000°12'0 0.0
2018-Jan-19 18:58N 53°38' W 000°12'0 0.0
2018-Jan-19 18:25N 53°38' W 000°12'0 0.0
2018-Jan-19 17:58N 53°38' W 000°12'0 0.0
2018-Jan-19 17:28N 53°38' W 000°12'0 0.0
2018-Jan-19 16:58N 53°38' W 000°12'0 0.0
2018-Jan-19 16:28N 53°38' W 000°12'0 0.0
2018-Jan-19 15:58N 53°38' W 000°12'0 0.0
2018-Jan-19 15:25N 53°38' W 000°12'0 0.0
2018-Jan-19 14:58N 53°38' W 000°12'0 0.0
2018-Jan-19 14:25N 53°38' W 000°12'0 0.0
2018-Jan-19 13:58N 53°38' W 000°12'0 0.0
2018-Jan-19 13:28N 53°38' W 000°12'0 0.0
2018-Jan-19 12:55N 53°38' W 000°12'0 0.0
2018-Jan-19 12:28N 53°38' W 000°12'0 0.0
2018-Jan-19 11:58N 53°38' W 000°12'0 0.0
2018-Jan-19 11:28N 53°38' W 000°12'0 0.0
2018-Jan-19 10:58N 53°38' W 000°12'0 0.0
2018-Jan-19 10:28N 53°38' W 000°12'0 0.0
2018-Jan-19 09:58N 53°38' W 000°12'0 0.0
2018-Jan-19 09:22N 53°38' W 000°12'0 0.0
2018-Jan-19 08:58N 53°38' W 000°12'0 0.0
2018-Jan-19 08:28N 53°38' W 000°12'0 0.0
2018-Jan-19 07:58N 53°38' W 000°12'0 0.0
2018-Jan-19 07:28N 53°38' W 000°12'0 0.0
2018-Jan-19 06:58N 53°38' W 000°12'0 0.0
2018-Jan-19 06:28N 53°38' W 000°12'0 0.0
2018-Jan-19 05:58N 53°38' W 000°12'0 0.0
2018-Jan-19 05:28N 53°38' W 000°12'0 0.0
2018-Jan-19 04:58N 53°38' W 000°12'0 0.0
2018-Jan-19 04:28N 53°38' W 000°12'0 0.0
2018-Jan-19 03:58N 53°38' W 000°12'0 0.0
2018-Jan-19 03:28N 53°38' W 000°12'0 0.0
2018-Jan-19 02:58N 53°38' W 000°12'0 0.0
2018-Jan-19 02:28N 53°38' W 000°12'0 0.0
2018-Jan-19 01:58N 53°38' W 000°12'0 0.0
2018-Jan-19 01:28N 53°38' W 000°12'0 0.0
2018-Jan-19 00:58N 53°38' W 000°12'0 0.0
2018-Jan-19 00:28N 53°38' W 000°12'0 0.0
2018-Jan-18 23:58N 53°38' W 000°12'0 0.0
2018-Jan-18 23:28N 53°38' W 000°12'0 0.0
2018-Jan-18 22:58N 53°38' W 000°12'0 0.0
2018-Jan-18 22:28N 53°38' W 000°12'0 0.0
2018-Jan-18 21:58N 53°38' W 000°12'0 0.0
2018-Jan-18 21:28N 53°38' W 000°12'0 0.0
2018-Jan-18 20:58N 53°38' W 000°12'0 0.0
2018-Jan-18 20:28N 53°38' W 000°12'0 0.0
2018-Jan-18 19:58N 53°38' W 000°12'0 0.0
2018-Jan-18 19:25N 53°38' W 000°12'0 0.0
2018-Jan-18 18:58N 53°38' W 000°12'0 0.0
2018-Jan-18 18:28N 53°38' W 000°12'0 0.0
2018-Jan-18 17:58N 53°38' W 000°12'0 0.0
2018-Jan-18 17:22N 53°38' W 000°12'0 0.0
2018-Jan-18 16:58N 53°38' W 000°12'0 0.0
2018-Jan-18 16:25N 53°38' W 000°12'0 0.0
2018-Jan-18 15:58N 53°38' W 000°12'0 0.0
2018-Jan-18 15:28N 53°38' W 000°12'0 0.0
2018-Jan-18 14:55N 53°38' W 000°12'0 0.0
2018-Jan-18 14:28N 53°38' W 000°12'0 0.0
2018-Jan-18 13:58N 53°38' W 000°12'0 0.0
2018-Jan-18 13:28N 53°38' W 000°12'0 0.0
2018-Jan-18 12:58N 53°38' W 000°12'0 0.0
2018-Jan-18 12:28N 53°38' W 000°12'0 0.0
2018-Jan-18 11:58N 53°38' W 000°12'0 0.0
2018-Jan-18 11:28N 53°38' W 000°12'0 0.0
2018-Jan-18 10:58N 53°38' W 000°12'0 0.0
2018-Jan-18 10:28N 53°38' W 000°12'0 0.0
2018-Jan-18 09:58N 53°38' W 000°12'0 0.0
2018-Jan-18 09:28N 53°38' W 000°12'0 0.0
2018-Jan-18 08:58N 53°38' W 000°12'0 0.0
2018-Jan-18 08:28N 53°38' W 000°12'0 0.0
2018-Jan-18 07:55N 53°38' W 000°12'0 0.0
2018-Jan-18 07:28N 53°38' W 000°12'0 0.0
2018-Jan-18 06:58N 53°38' W 000°12'0 0.0
2018-Jan-18 06:28N 53°38' W 000°12'0 0.0
2018-Jan-18 05:58N 53°38' W 000°12'0 0.0
2018-Jan-18 05:28N 53°38' W 000°12'0 0.0
2018-Jan-18 04:58N 53°38' W 000°12'0 0.0
2018-Jan-18 04:28N 53°38' W 000°12'0 0.0
2018-Jan-18 03:58N 53°38' W 000°12'0 0.0
2018-Jan-18 03:28N 53°38' W 000°12'0 0.0
2018-Jan-18 02:58N 53°38' W 000°12'0 0.0
2018-Jan-18 02:28N 53°38' W 000°12'0 0.0
2018-Jan-18 01:58N 53°38' W 000°12'0 0.0
2018-Jan-18 01:28N 53°38' W 000°12'0 0.0
2018-Jan-18 00:58N 53°38' W 000°12'0 0.0
2018-Jan-17 23:58N 53°38' W 000°12'0 0.0
2018-Jan-17 23:55N 53°38' W 000°12'  

Dump ship's entire track history